Buckhorn, North Carolina
Current Conditions -  °F | °C
As of 2:56 AM on Friday 19 Dec 2014 (Local Time) from KIGX Reporting Station
Overcast Overcast  
Wind Chill: 37°   Ceiling: 6500
Heat Index: 41°   Visibility: 10mi
Dew Point: 28°   Wind: 6mph
Humidity: 60%   Direction: 300°WNW
Pressure: 30.1"   Gusts: NA
Location:  36.0756°N, 79.1903°W
Report Text: KIGX 190756Z AUTO 30005KT 10SM OVC065 05/M02 A3010 RMK AO2 SLP194 T00501022
Loading
Personal Weather Stations






























Interactive Weather Map New forecast layout! Learn more

10-Day Weather Forecast

Advertisements
Track Severe Weather on mobile